Time;durP1;ratioP1;P1;durP2;ratioP2;P2;SDS_P1;SDS_P2;PMS_P1;PMS_P2;Temp;Humidity;BMP_temperature;BMP_pressure;BME280_temperature;BME280_humidity;BME280_pressure;Samples;Min_cycle;Max_cycle;Signal;HPM_P1;HPM_P2
2022/10/14 00:01:26;;;;;;;46.15;23.33;;;;;;;11.66;100.00;101516.09;6181904;23;20591;-90
2022/10/14 00:03:57;;;;;;;42.08;22.23;;;;;;;11.75;100.00;101531.50;6181040;23;20048;-90
2022/10/14 00:06:28;;;;;;;43.47;22.50;;;;;;;11.64;100.00;101504.84;6180712;23;20015;-90
2022/10/14 00:08:57;;;;;;;44.05;22.48;;;;;;;11.77;100.00;101530.63;6179400;23;20339;-90
2022/10/14 00:11:28;;;;;;;46.85;23.00;;;;;;;11.77;100.00;101521.97;6180495;23;20005;-90
2022/10/14 00:14:01;;;;;;;45.65;22.70;;;;;;;11.75;100.00;101516.78;6178344;23;20016;-90
2022/10/14 00:16:30;;;;;;;43.85;22.25;;;;;;;11.74;100.00;101515.06;6179161;23;20001;-90
2022/10/14 00:18:57;;;;;;;45.83;22.65;;;;;;;11.77;100.00;101507.25;6180046;23;20036;-90
2022/10/14 00:21:30;;;;;;;48.45;24.15;;;;;;;11.86;100.00;101525.28;6180164;23;20001;-90
2022/10/14 00:23:58;;;;;;;42.85;20.88;;;;;;;11.96;100.00;101533.72;6182406;23;20008;-90
2022/10/14 00:26:30;;;;;;;44.85;22.63;;;;;;;12.00;100.00;101535.41;6180536;23;20072;-90
2022/10/14 00:29:00;;;;;;;47.03;22.90;;;;;;;11.95;100.00;101520.75;6179805;23;20013;-89
2022/10/14 00:31:27;;;;;;;44.45;22.27;;;;;;;12.04;100.00;101537.06;6181651;23;20005;-90
2022/10/14 00:34:01;;;;;;;43.55;22.60;;;;;;;12.02;100.00;101532.75;6181901;23;20008;-91
2022/10/14 00:36:26;;;;;;;;;;;;;;;12.13;100.00;101531.69;6180311;23;20347;-90
2022/10/14 00:38:53;;;;;;;40.30;19.83;;;;;;;12.13;100.00;101531.69;6180444;23;20436;-90
2022/10/14 00:41:25;;;;;;;41.63;20.70;;;;;;;12.14;100.00;101525.63;6180137;23;20009;-90
2022/10/14 00:43:59;;;;;;;41.70;20.27;;;;;;;12.17;100.00;101525.53;6177770;23;20096;-90
2022/10/14 00:46:27;;;;;;;45.88;22.33;;;;;;;12.13;100.00;101515.25;6179778;23;20557;-90
2022/10/14 00:48:58;;;;;;;46.83;22.52;;;;;;;12.15;100.00;101506.50;6181895;23;20001;-91
2022/10/14 00:51:27;;;;;;;40.92;20.77;;;;;;;12.14;100.00;101501.38;6180304;23;20016;-91
2022/10/14 00:54:00;;;;;;;44.15;22.40;;;;;;;12.23;100.00;101506.34;6183072;23;20067;-91
2022/10/14 00:56:31;;;;;;;49.95;23.98;;;;;;;12.21;100.00;101514.19;6181393;23;20076;-90
2022/10/14 00:59:02;;;;;;;48.00;24.08;;;;;;;12.09;100.00;101493.63;6178757;23;20592;-91
2022/10/14 01:01:37;;;;;;;44.83;22.83;;;;;;;12.20;100.00;101499.50;6180321;23;20004;-90
2022/10/14 01:04:02;;;;;;;42.00;22.55;;;;;;;12.17;100.00;101496.09;6180390;23;20036;-90
2022/10/14 01:07:18;;;;;;;46.22;23.23;;;;;;;12.19;100.00;101484.78;6180973;23;20001;-91
2022/10/14 01:09:55;;;;;;;47.70;22.98;;;;;;;12.27;100.00;101498.50;6172640;23;20395;-90
2022/10/14 01:12:49;;;;;;;47.10;22.45;;;;;;;12.28;100.00;101496.75;6180091;23;20012;-91
2022/10/14 01:15:30;;;;;;;43.63;22.05;;;;;;;12.30;100.00;101500.16;6180533;23;20112;-90
2022/10/14 01:18:34;;;;;;;42.83;20.83;;;;;;;12.32;100.00;101492.34;6181106;23;20012;-90
2022/10/14 01:21:02;;;;;;;46.60;22.20;;;;;;;12.33;100.00;101491.44;6082157;23;20084;-90
2022/10/14 01:23:53;;;;;;;50.00;23.55;;;;;;;12.34;100.00;101488.81;6179957;23;20009;-91
2022/10/14 01:26:33;;;;;;;44.53;22.55;;;;;;;12.34;100.00;101483.63;6179892;23;20001;-91
2022/10/14 01:29:20;;;;;;;48.13;22.98;;;;;;;12.36;100.00;101474.03;6180408;23;20628;-91
2022/10/14 01:32:30;;;;;;;47.67;22.90;;;;;;;12.34;100.00;101464.56;6179688;23;20017;-91
2022/10/14 01:35:10;;;;;;;43.58;22.35;;;;;;;12.27;100.00;101435.25;6090112;23;20007;-91
2022/10/14 01:37:55;;;;;;;44.88;23.77;;;;;;;12.36;100.00;101453.22;6169616;23;20383;-91
2022/10/14 01:40:46;;;;;;;44.60;21.92;;;;;;;12.36;100.00;101436.78;6180555;23;20068;-90
2022/10/14 01:43:13;;;;;;;44.40;21.52;;;;;;;12.35;100.00;101433.31;6163557;23;20443;-91
2022/10/14 01:45:42;;;;;;;41.20;21.77;;;;;;;12.28;100.00;101417.00;6177953;23;20080;-90
2022/10/14 01:48:14;;;;;;;41.55;21.27;;;;;;;12.35;100.00;101432.50;6180518;23;20001;-90
2022/10/14 01:50:48;;;;;;;45.85;22.27;;;;;;;12.36;100.00;101435.03;6180623;23;20419;-90
2022/10/14 01:53:19;;;;;;;39.20;21.80;;;;;;;12.21;100.00;101412.00;6180058;23;20012;-90
2022/10/14 01:55:47;;;;;;;45.10;21.17;;;;;;;12.32;100.00;101419.53;6180591;23;20056;-90
2022/10/14 01:58:15;;;;;;;39.17;20.75;;;;;;;12.36;100.00;101424.63;6181835;23;20001;-90
2022/10/14 02:00:49;;;;;;;44.22;21.88;;;;;;;12.35;100.00;101432.50;6181639;23;20008;-91
2022/10/14 02:03:24;;;;;;;43.07;21.70;;;;;;;12.35;100.00;101435.91;6180158;23;20401;-90
2022/10/14 02:06:09;;;;;;;39.95;21.23;;;;;;;12.28;100.00;101426.56;6180122;23;20008;-91
2022/10/14 02:08:47;;;;;;;39.50;21.00;;;;;;;12.37;100.00;101435.88;6180194;23;20011;-90
2022/10/14 02:11:15;;;;;;;41.75;21.83;;;;;;;12.27;100.00;101411.84;6180438;23;20009;-91
2022/10/14 02:13:56;;;;;;;41.15;21.67;;;;;;;12.33;100.00;101422.13;6179493;23;20005;-90
2022/10/14 02:16:54;;;;;;;42.13;21.60;;;;;;;12.28;100.00;101408.38;6178235;23;20430;-90
2022/10/14 02:19:43;;;;;;;35.72;19.55;;;;;;;12.35;100.00;101422.91;6178675;23;20434;-91
2022/10/14 02:22:22;;;;;;;39.47;20.02;;;;;;;12.24;100.00;101398.91;6180513;23;20031;-91
2022/10/14 02:25:01;;;;;;;38.33;20.83;;;;;;;12.21;100.00;101392.03;6180173;23;20020;-92
2022/10/14 02:27:33;;;;;;;40.03;20.35;;;;;;;12.23;100.00;101402.38;6182028;23;20004;-91
2022/10/14 02:30:03;;;;;;;40.90;19.50;;;;;;;12.24;100.00;101396.31;6180528;23;20016;-91
2022/10/14 02:32:41;;;;;;;42.45;19.70;;;;;;;12.26;100.00;101403.19;6178248;23;20009;-92
2022/10/14 02:35:13;;;;;;;38.20;19.27;;;;;;;12.32;100.00;101410.00;6179956;23;20087;-90
2022/10/14 02:37:43;;;;;;;39.42;20.17;;;;;;;12.24;100.00;101394.56;6180488;23;20008;-90
2022/10/14 02:40:24;;;;;;;42.85;20.80;;;;;;;12.26;100.00;101397.16;6182049;23;20001;-91
2022/10/14 02:43:00;;;;;;;37.03;18.85;;;;;;;12.37;100.00;101423.75;6181815;23;19998;-91
2022/10/14 02:45:26;;;;;;;37.90;19.27;;;;;;;12.30;100.00;101409.16;6179867;23;20025;-90
2022/10/14 02:47:54;;;;;;;35.72;18.52;;;;;;;12.37;100.00;101421.16;6179064;23;20028;-90
2022/10/14 02:50:23;;;;;;;46.00;20.95;;;;;;;12.29;100.00;101399.66;6180176;23;20032;-90
2022/10/14 02:52:53;;;;;;;40.58;19.73;;;;;;;12.22;100.00;101383.34;6180042;23;20122;-90
2022/10/14 02:55:19;;;;;;;40.35;19.67;;;;;;;12.35;100.00;101415.13;6180133;23;20084;-91
2022/10/14 02:57:44;;;;;;;42.03;20.00;;;;;;;12.27;100.00;101399.72;6181951;23;20035;-90
2022/10/14 03:00:19;;;;;;;44.20;21.13;;;;;;;12.27;100.00;101391.91;6179384;23;20029;-91
2022/10/14 03:02:47;;;;;;;40.35;18.85;;;;;;;12.21;100.00;101392.03;6179475;23;19997;-90
2022/10/14 03:05:15;;;;;;;36.63;18.65;;;;;;;12.27;100.00;101394.53;6179974;23;20009;-91
2022/10/14 03:07:41;;;;;;;29.75;16.10;;;;;;;12.29;100.00;101391.84;6181789;23;20024;-91
2022/10/14 03:10:07;;;;;;;37.72;18.55;;;;;;;12.34;100.00;101394.38;6180247;23;20011;-90
2022/10/14 03:12:32;;;;;;;40.40;19.52;;;;;;;12.33;100.00;101390.06;6181244;23;20001;-91
2022/10/14 03:15:00;;;;;;;39.38;19.20;;;;;;;12.31;100.00;101390.09;6179298;23;20076;-89
2022/10/14 03:17:30;;;;;;;33.85;17.35;;;;;;;12.34;100.00;101391.78;6179558;23;20016;-90
2022/10/14 03:19:57;;;;;;;33.58;17.63;;;;;;;12.36;100.00;101384.78;6179408;23;20001;-91
2022/10/14 03:22:22;;;;;;;37.50;18.35;;;;;;;12.21;100.00;101363.44;6180945;23;20056;-91
2022/10/14 03:24:48;;;;;;;39.55;19.63;;;;;;;12.29;100.00;101368.47;6180110;23;20012;-90
2022/10/14 03:27:13;;;;;;;38.70;18.98;;;;;;;12.32;100.00;101372.75;6179747;23;20140;-90
2022/10/14 03:29:43;;;;;;;38.80;18.98;;;;;;;12.26;100.00;101366.81;6179243;23;20008;-90
2022/10/14 03:32:09;;;;;;;37.78;18.48;;;;;;;12.31;100.00;101365.84;6176369;23;20005;-91
2022/10/14 03:34:37;;;;;;;39.67;18.80;;;;;;;12.27;100.00;101359.88;6181471;23;20019;-90
2022/10/14 03:37:02;;;;;;;40.72;18.77;;;;;;;12.32;100.00;101373.59;6181535;23;19997;-89
2022/10/14 03:39:28;;;;;;;37.53;18.30;;;;;;;12.32;100.00;101371.00;6179573;23;20076;-90
2022/10/14 03:41:53;;;;;;;42.08;19.73;;;;;;;12.25;100.00;101353.84;6179343;23;20020;-90
2022/10/14 03:44:19;;;;;;;38.50;18.63;;;;;;;12.26;100.00;101364.22;6179222;23;20059;-91
2022/10/14 03:46:44;;;;;;;37.97;18.42;;;;;;;12.20;100.00;101353.09;6180518;23;20060;-90
2022/10/14 03:49:10;;;;;;;37.92;18.45;;;;;;;12.25;100.00;101351.25;6182174;23;20048;-91
2022/10/14 03:51:35;;;;;;;49.10;20.60;;;;;;;12.21;100.00;101340.03;6181246;23;20005;-91
2022/10/14 03:54:01;;;;;;;40.72;19.10;;;;;;;12.25;100.00;101359.91;6181932;23;20009;-90
2022/10/14 03:56:26;;;;;;;41.63;19.33;;;;;;;12.25;100.00;101349.50;6181051;23;19997;-91
2022/10/14 03:58:55;;;;;;;42.47;19.38;;;;;;;12.23;100.00;101342.63;6181826;23;20009;-91
2022/10/14 04:01:26;;;;;;;35.30;17.83;;;;;;;12.31;100.00;101363.25;6181546;23;20001;-90
2022/10/14 04:03:54;;;;;;;40.00;18.73;;;;;;;12.30;100.00;101351.97;6181553;23;20040;-91
2022/10/14 04:06:22;;;;;;;38.33;18.35;;;;;;;12.25;100.00;101339.09;6180882;23;20435;-91
2022/10/14 04:08:47;;;;;;;39.22;18.00;;;;;;;12.24;100.00;101324.38;6180523;23;20209;-90
2022/10/14 04:11:18;;;;;;;41.28;18.88;;;;;;;12.19;100.00;101308.06;6182226;23;20028;-91
2022/10/14 04:13:45;;;;;;;41.10;18.23;;;;;;;12.29;100.00;101324.28;6181800;23;20005;-90
2022/10/14 04:16:11;;;;;;;41.38;18.83;;;;;;;12.28;100.00;101322.59;6181091;23;20080;-91
2022/10/14 04:18:45;;;;;;;38.65;17.83;;;;;;;12.19;100.00;101305.44;6181677;23;20032;-91
2022/10/14 04:21:11;;;;;;;45.10;19.38;;;;;;;12.26;100.00;101314.81;6181352;23;20449;-90
2022/10/14 04:23:37;;;;;;;39.13;17.45;;;;;;;12.30;100.00;101325.13;6181782;23;20450;-91
2022/10/14 04:26:07;;;;;;;40.10;17.48;;;;;;;12.35;100.00;101331.94;6181123;23;20084;-91
2022/10/14 04:28:35;;;;;;;37.17;16.42;;;;;;;12.22;100.00;101301.91;6183088;23;20006;-91
2022/10/14 04:31:01;;;;;;;37.88;18.15;;;;;;;12.25;100.00;101302.72;6180434;23;20052;-90
2022/10/14 04:33:30;;;;;;;38.38;18.42;;;;;;;12.33;100.00;101314.69;6180419;23;20581;-91
2022/10/14 04:36:06;;;;;;;38.17;17.55;;;;;;;12.22;100.00;101296.72;6181225;23;20457;-91
2022/10/14 04:38:32;;;;;;;40.67;17.52;;;;;;;12.24;100.00;101295.78;6180198;23;20715;-91
2022/10/14 04:40:58;;;;;;;39.00;17.27;;;;;;;12.25;100.00;101294.91;6180238;23;20004;-91
2022/10/14 04:43:23;;;;;;;41.22;18.00;;;;;;;12.29;100.00;101295.69;6182219;23;20032;-91
2022/10/14 04:45:51;;;;;;;38.22;18.13;;;;;;;12.24;100.00;101295.78;6181675;23;20585;-91
2022/10/14 04:48:20;;;;;;;38.65;17.63;;;;;;;12.39;100.00;101309.31;6181988;23;20001;-91
2022/10/14 04:50:50;;;;;;;32.33;16.50;;;;;;;12.35;100.00;101302.50;6180288;23;20009;-91
2022/10/14 04:53:18;;;;;;;35.30;17.08;;;;;;;12.31;100.00;101293.91;6179647;23;20047;-90
2022/10/14 04:55:48;;;;;;;38.55;17.38;;;;;;;12.28;100.00;101288.81;6182078;23;20080;-91
2022/10/14 04:58:13;;;;;;;39.75;17.58;;;;;;;12.35;100.00;101286.91;6180147;23;20316;-91
2022/10/14 05:00:42;;;;;;;41.33;17.30;;;;;;;12.38;100.00;101297.22;6180411;23;20575;-91
2022/10/14 05:03:10;;;;;;;34.65;16.63;;;;;;;12.34;100.00;101286.06;6179064;23;20331;-90
2022/10/14 05:05:36;;;;;;;37.20;16.80;;;;;;;12.40;100.00;101290.25;6181881;23;20012;-91
2022/10/14 05:08:01;;;;;;;35.92;16.77;;;;;;;12.35;100.00;101295.53;6178479;23;20009;-90
2022/10/14 05:10:30;;;;;;;35.35;16.58;;;;;;;12.43;100.00;101296.22;6179407;23;20009;-92
2022/10/14 05:12:55;;;;;;;39.88;17.20;;;;;;;12.37;100.00;101280.75;6180207;23;20005;-91
2022/10/14 05:15:21;;;;;;;37.20;16.65;;;;;;;12.35;100.00;101271.31;6180345;23;20060;-91
2022/10/14 05:17:47;;;;;;;34.40;16.52;;;;;;;12.41;100.00;101279.81;6178303;23;20032;-91
2022/10/14 05:20:28;;;;;;;34.42;17.00;;;;;;;12.33;100.00;101267.88;6181315;23;20009;-91
2022/10/14 05:22:55;;;;;;;31.15;15.63;;;;;;;12.26;100.00;101265.44;6179923;23;20060;-91
2022/10/14 05:25:21;;;;;;;33.05;16.77;;;;;;;12.36;100.00;101273.00;6178919;23;20084;-91
2022/10/14 05:27:46;;;;;;;41.53;17.17;;;;;;;12.33;100.00;101260.09;6181038;23;20047;-92
2022/10/14 05:30:12;;;;;;;36.75;17.67;;;;;;;12.40;100.00;101275.50;6179865;23;20005;-92
2022/10/14 05:32:40;;;;;;;37.92;18.50;;;;;;;12.35;100.00;101250.50;6179880;23;20005;-91
2022/10/14 05:35:09;;;;;;;49.30;22.38;;;;;;;12.30;100.00;101239.34;6179806;23;20044;-91
2022/10/14 05:37:34;;;;;;;50.75;22.70;;;;;;;12.33;100.00;101242.75;6179454;23;20431;-91
2022/10/14 05:40:00;;;;;;;55.88;25.40;;;;;;;12.43;100.00;101246.81;6179856;23;20299;-92
2022/10/14 05:42:28;;;;;;;55.33;25.42;;;;;;;12.44;100.00;101245.91;6180680;23;20024;-91
2022/10/14 05:44:54;;;;;;;47.47;23.30;;;;;;;12.31;100.00;101228.91;6181005;23;20439;-91
2022/10/14 05:47:21;;;;;;;46.42;22.58;;;;;;;12.46;100.00;101244.16;6178465;23;20059;-92
2022/10/14 05:49:47;;;;;;;36.95;18.73;;;;;;;12.41;100.00;101232.16;6178918;23;20426;-91
2022/10/14 05:52:12;;;;;;;32.78;17.67;;;;;;;12.44;100.00;101229.47;6179540;23;20115;-91
2022/10/14 05:54:41;;;;;;;34.00;16.25;;;;;;;12.41;100.00;101216.56;6178656;23;20043;-92
2022/10/14 05:57:06;;;;;;;32.75;15.38;;;;;;;12.40;100.00;101225.25;6180069;23;20000;-91
2022/10/14 05:59:33;;;;;;;30.65;14.30;;;;;;;12.52;100.00;101233.59;6180160;23;20116;-90
2022/10/14 06:01:59;;;;;;;26.33;13.70;;;;;;;12.42;100.00;101220.88;6181745;23;20000;-91
2022/10/14 06:04:25;;;;;;;25.75;13.40;;;;;;;12.48;100.00;101223.31;6179338;23;20332;-90
2022/10/14 06:06:53;;;;;;;27.10;13.68;;;;;;;12.56;100.00;101235.19;6175942;23;20458;-92
2022/10/14 06:09:19;;;;;;;23.52;12.95;;;;;;;12.49;100.00;101223.25;6177136;23;20021;-90
2022/10/14 06:11:47;;;;;;;24.33;12.80;;;;;;;12.58;100.00;101238.63;6181589;23;20088;-90
2022/10/14 06:14:13;;;;;;;22.17;12.25;;;;;;;12.56;100.00;101229.16;6178675;23;20005;-90
2022/10/14 06:16:38;;;;;;;23.50;12.38;;;;;;;12.44;100.00;101198.28;6181137;23;20004;-89
2022/10/14 06:19:04;;;;;;;23.80;12.43;;;;;;;12.51;100.00;101211.06;6179450;23;20028;-90
2022/10/14 06:21:32;;;;;;;24.52;12.80;;;;;;;12.60;100.00;101231.66;6180320;23;20005;-91
2022/10/14 06:23:57;;;;;;;22.90;11.90;;;;;;;12.61;100.00;101228.16;6179483;23;20180;-90
2022/10/14 06:26:25;;;;;;;20.70;11.27;;;;;;;12.60;100.00;101215.19;6179674;23;20069;-90
2022/10/14 06:28:51;;;;;;;21.73;11.63;;;;;;;12.55;100.00;101210.13;6176454;23;20343;-91
2022/10/14 06:31:16;;;;;;;21.17;11.93;;;;;;;12.64;100.00;101222.88;6177706;23;20703;-92
2022/10/14 06:33:42;;;;;;;22.38;12.02;;;;;;;12.68;100.00;101222.81;6178852;23;20001;-91
2022/10/14 06:36:08;;;;;;;22.10;11.40;;;;;;;12.69;100.00;101221.91;6179374;23;20001;-91
2022/10/14 06:38:34;;;;;;;22.15;11.77;;;;;;;12.68;100.00;101218.44;6178633;23;20012;-91
2022/10/14 06:41:02;;;;;;;22.05;11.63;;;;;;;12.69;100.00;101206.31;6177299;23;20009;-91
2022/10/14 06:43:28;;;;;;;22.23;11.07;;;;;;;12.71;100.00;101215.75;6179098;23;20005;-91
2022/10/14 06:46:04;;;;;;;19.10;10.93;;;;;;;12.72;100.00;101219.22;6177483;23;20013;-91
2022/10/14 06:48:33;;;;;;;22.30;10.48;;;;;;;12.71;100.00;101207.09;6177506;23;20114;-91
2022/10/14 06:50:59;;;;;;;20.65;11.13;;;;;;;12.65;100.00;101197.72;6177385;23;20012;-92
2022/10/14 06:53:26;;;;;;;19.48;11.18;;;;;;;12.66;100.00;101194.22;6179617;23;20076;-91
2022/10/14 06:56:03;;;;;;;19.02;10.10;;;;;;;12.80;100.00;101204.25;6177860;23;20009;-91
2022/10/14 06:58:29;;;;;;;19.80;10.73;;;;;;;12.71;100.00;101188.88;6178453;23;20386;-91
2022/10/14 07:00:57;;;;;;;21.08;11.10;;;;;;;12.83;100.00;101199.81;6179703;23;20000;-91
2022/10/14 07:03:23;;;;;;;20.67;10.98;;;;;;;12.80;100.00;101191.25;6177866;23;20016;-91
2022/10/14 07:05:48;;;;;;;18.13;10.88;;;;;;;12.78;100.00;101175.69;6177821;23;20013;-90
2022/10/14 07:08:13;;;;;;;19.02;10.98;;;;;;;12.84;100.00;101187.66;6179509;23;20378;-90
2022/10/14 07:10:41;;;;;;;20.00;11.05;;;;;;;12.95;100.00;101190.84;6178977;23;20012;-91
2022/10/14 07:13:09;;;;;;;19.77;10.95;;;;;;;12.83;100.00;101178.16;6177973;23;20001;-91
2022/10/14 07:15:44;;;;;;;20.15;11.57;;;;;;;12.90;100.00;101188.34;6177855;23;20005;-92
2022/10/14 07:18:10;;;;;;;20.90;11.50;;;;;;;13.01;100.00;101201.94;6176674;23;20016;-91
2022/10/14 07:20:38;;;;;;;19.55;10.88;;;;;;;12.94;100.00;101189.13;6177449;23;20001;-91
2022/10/14 07:23:03;;;;;;;19.95;11.90;;;;;;;12.93;100.00;101183.06;6178910;23;20033;-91
2022/10/14 07:25:28;;;;;;;21.10;11.40;;;;;;;12.95;100.00;101185.63;6179214;23;20036;-91
2022/10/14 07:27:54;;;;;;;18.90;11.48;;;;;;;13.09;100.00;101203.47;6179626;23;20016;-91
2022/10/14 07:30:20;;;;;;;21.33;11.90;;;;;;;13.02;100.00;101181.97;6178768;23;20005;-91
2022/10/14 07:32:45;;;;;;;19.38;10.70;;;;;;;13.02;100.00;101187.16;6178397;23;20005;-91
2022/10/14 07:35:11;;;;;;;19.77;10.90;;;;;;;13.05;100.00;101190.53;6178771;23;20551;-90
2022/10/14 07:37:37;;;;;;;20.58;11.45;;;;;;;13.12;100.00;101201.59;6183674;23;20001;-91
2022/10/14 07:40:02;;;;;;;20.25;10.80;;;;;;;13.13;100.00;101203.34;6181490;23;20099;-91
2022/10/14 07:42:28;;;;;;;19.02;11.68;;;;;;;13.14;100.00;101205.06;6180580;23;20051;-91
2022/10/14 07:44:53;;;;;;;18.58;11.15;;;;;;;13.08;100.00;101184.38;6181588;23;20013;-91
2022/10/14 07:47:19;;;;;;;20.83;11.10;;;;;;;13.09;100.00;101186.09;6181702;23;20080;-92
2022/10/14 07:49:47;;;;;;;19.38;11.73;;;;;;;13.15;100.00;101191.16;6182194;23;20327;-91
2022/10/14 07:52:14;;;;;;;19.10;11.00;;;;;;;13.18;100.00;101182.38;6183017;23;20009;-91
2022/10/14 07:54:42;;;;;;;19.95;11.55;;;;;;;13.24;100.00;101190.00;6183021;23;20004;-91
2022/10/14 07:57:11;;;;;;;19.30;11.23;;;;;;;13.20;100.00;101178.00;6181901;23;20036;-90
2022/10/14 07:59:37;;;;;;;18.92;11.20;;;;;;;13.22;100.00;101171.00;6183421;23;20012;-90
2022/10/14 08:02:03;;;;;;;20.17;11.52;;;;;;;13.25;100.00;101169.16;6183097;23;20001;-91
2022/10/14 08:04:31;;;;;;;19.65;11.65;;;;;;;13.35;100.00;101177.56;6182949;23;20063;-90
2022/10/14 08:06:57;;;;;;;18.55;11.45;;;;;;;13.35;100.00;101167.13;6180928;23;20004;-90
2022/10/14 08:09:22;;;;;;;20.65;11.80;;;;;;;13.37;100.00;101173.97;6181467;23;20004;-91
2022/10/14 08:11:48;;;;;;;19.52;11.35;;;;;;;13.39;100.00;101164.38;6183301;23;20320;-90
2022/10/14 08:14:14;;;;;;;20.77;11.05;;;;;;;13.43;100.00;101170.38;6180283;23;20012;-92
2022/10/14 08:16:39;;;;;;;19.38;11.63;;;;;;;13.52;100.00;101184.84;6181090;23;20572;-90
2022/10/14 08:19:10;;;;;;;18.40;11.10;;;;;;;13.50;100.00;101171.03;6181313;23;20001;-91
2022/10/14 08:21:38;;;;;;;17.27;10.98;;;;;;;13.50;100.00;101168.44;6182514;23;20011;-91
2022/10/14 08:24:04;;;;;;;19.55;10.73;;;;;;;13.57;100.00;101169.94;6183057;23;20004;-90
2022/10/14 08:26:34;;;;;;;18.52;11.07;;;;;;;13.56;100.00;101163.88;6180962;23;20084;-90
2022/10/14 08:29:02;;;;;;;20.83;11.60;;;;;;;13.60;100.00;101154.22;6180978;23;20008;-90
2022/10/14 08:31:29;;;;;;;20.63;10.95;;;;;;;13.64;100.00;101140.22;6182977;23;20088;-91
2022/10/14 08:33:54;;;;;;;19.52;11.05;;;;;;;13.72;100.00;101151.22;6181772;23;20560;-90
2022/10/14 08:36:20;;;;;;;17.17;10.75;;;;;;;13.76;100.00;101140.66;6180833;23;20005;-91
2022/10/14 08:38:47;;;;;;;19.27;10.93;;;;;;;13.91;100.00;101152.34;6183006;23;20055;-91
2022/10/14 08:41:13;;;;;;;20.58;11.45;;;;;;;14.06;100.00;101161.41;6181982;23;20089;-90
2022/10/14 08:43:48;;;;;;;15.80;10.60;;;;;;;14.10;100.00;101166.47;6180908;23;20048;-90
2022/10/14 08:46:22;;;;;;;17.65;10.77;;;;;;;14.10;100.00;101165.63;6180940;23;20017;-90
2022/10/14 08:48:54;;;;;;;17.33;10.73;;;;;;;14.12;100.00;101153.41;6182480;23;20376;-90
2022/10/14 08:51:20;;;;;;;16.40;10.93;;;;;;;14.16;100.00;101161.06;6179866;23;20015;-91
2022/10/14 08:54:04;;;;;;;17.45;10.32;;;;;;;14.17;100.00;101164.53;6180486;23;20013;-91
2022/10/14 08:56:31;;;;;;;17.20;9.98;;;;;;;14.17;100.00;101154.94;6181511;23;20012;-91
2022/10/14 08:59:13;;;;;;;16.90;10.02;;;;;;;14.23;100.00;101162.56;6179603;23;20777;-90
2022/10/14 09:01:52;;;;;;;15.18;10.60;;;;;;;14.19;100.00;101147.91;6180819;23;20063;-90
2022/10/14 09:04:34;;;;;;;16.23;10.02;;;;;;;14.26;100.00;101158.16;6177758;23;20005;-89
2022/10/14 09:07:18;;;;;;;15.60;9.63;;;;;;;14.26;100.00;101165.97;6180304;23;20000;-90
2022/10/14 09:09:54;;;;;;;17.17;10.10;;;;;;;14.29;100.00;101168.47;6181631;23;20005;-91
2022/10/14 09:12:24;;;;;;;18.25;10.38;;;;;;;14.15;100.00;101148.94;6179342;23;20016;-90
2022/10/14 09:15:20;;;;;;;17.67;10.48;;;;;;;14.23;100.00;101151.28;6180445;23;20009;-92
2022/10/14 09:18:04;;;;;;;16.65;10.65;;;;;;;14.30;100.00;101152.78;6182258;23;20025;-90
2022/10/14 09:20:30;;;;;;;13.90;10.07;;;;;;;14.33;100.00;101137.00;6182444;23;20012;-91
2022/10/14 09:23:18;;;;;;;18.00;10.23;;;;;;;14.50;100.00;101160.81;6180118;23;20001;-90
2022/10/14 09:25:56;;;;;;;14.88;10.35;;;;;;;14.46;100.00;101145.31;6181150;23;20373;-90
2022/10/14 09:28:53;;;;;;;16.80;10.07;;;;;;;14.51;100.00;101140.78;6179760;23;20447;-92
2022/10/14 09:31:42;;;;;;;16.15;9.85;;;;;;;14.62;100.00;101142.09;6165831;23;20347;-92
2022/10/14 09:34:32;;;;;;;14.20;9.63;;;;;;;14.74;100.00;101143.41;6180916;23;20461;-92
2022/10/14 09:37:22;;;;;;;16.35;10.35;;;;;;;14.80;100.00;101134.53;6179871;23;20083;-91
2022/10/14 09:43:02;;;;;;;13.82;9.80;;;;;;;14.86;100.00;101131.69;6173823;23;20113;-91
2022/10/14 09:45:52;;;;;;;15.20;9.73;;;;;;;14.92;100.00;101127.09;6180216;23;20320;-91
2022/10/14 09:48:24;;;;;;;16.05;10.77;;;;;;;15.05;100.00;101126.63;6179840;23;20005;-92
2022/10/14 09:51:01;;;;;;;15.52;9.40;;;;;;;15.21;100.00;101133.84;6179434;23;20028;-92
2022/10/14 09:53:28;;;;;;;15.32;9.75;;;;;;;15.18;100.00;101123.50;6179792;23;20075;-90
2022/10/14 09:56:00;;;;;;;15.40;9.65;;;;;;;15.17;100.00;101102.66;6180127;23;20013;-92
2022/10/14 09:58:30;;;;;;;14.75;10.05;;;;;;;15.32;100.00;101133.41;6177849;23;20009;-93
2022/10/14 10:01:02;;;;;;;13.60;9.32;;;;;;;15.22;100.00;101114.63;6181003;23;20013;-91
2022/10/14 10:04:00;;;;;;;13.68;9.68;;;;;;;15.23;100.00;101111.09;6181778;23;20001;-91
2022/10/14 10:07:04;;;;;;;15.70;9.43;;;;;;;15.38;100.00;101128.81;6179227;23;20542;-91
2022/10/14 10:09:37;;;;;;;13.23;8.98;;;;;;;15.25;100.00;101104.06;6180714;23;20020;-91
2022/10/14 10:12:22;;;;;;;13.35;9.02;;;;;;;15.31;100.00;101111.66;6181262;23;20005;-91
2022/10/14 10:15:06;;;;;;;15.38;8.70;;;;;;;15.23;100.00;101107.66;6181034;23;20004;-92
2022/10/14 10:17:41;;;;;;;12.60;8.88;;;;;;;15.11;100.00;101100.28;6181882;23;20001;-91
2022/10/14 10:20:32;;;;;;;;;;;;;;;15.28;100.00;101124.00;6156431;23;20036;-92
2022/10/14 10:23:24;;;;;;;13.30;8.80;;;;;;;15.08;100.00;101105.66;6181305;23;19904;-91
2022/10/14 10:26:09;;;;;;;12.50;8.82;;;;;;;15.03;100.00;101101.44;6179364;23;20013;-91
2022/10/14 10:28:37;;;;;;;12.85;8.80;;;;;;;15.07;100.00;101094.34;6178901;23;20005;-91
2022/10/14 10:31:19;;;;;;;12.43;8.85;;;;;;;15.14;100.00;101102.78;6180581;23;20005;-91
2022/10/14 10:34:00;;;;;;;12.73;8.82;;;;;;;15.16;100.00;101098.34;6178392;23;20001;-91
2022/10/14 10:36:55;;;;;;;13.30;9.00;;;;;;;15.14;100.00;101092.34;6180686;23;20029;-91
2022/10/14 10:39:39;;;;;;;14.05;8.85;;;;;;;15.26;100.00;101111.00;6180444;23;20681;-91
2022/10/14 10:42:24;;;;;;;12.30;8.50;;;;;;;15.19;100.00;101088.66;6180177;23;19997;-91
2022/10/14 10:45:24;;;;;;;12.25;8.65;;;;;;;15.14;100.00;101092.34;6179765;23;20017;-90
2022/10/14 10:48:10;;;;;;;11.63;7.97;;;;;;;14.97;100.00;101070.34;6179614;23;20009;-91
2022/10/14 10:50:51;;;;;;;12.70;8.35;;;;;;;14.92;100.00;101077.50;6180327;23;20043;-92
2022/10/14 10:53:38;;;;;;;12.52;8.25;;;;;;;14.87;100.00;101074.22;6180220;23;20009;-91
2022/10/14 10:56:38;;;;;;;13.20;8.32;;;;;;;14.87;100.00;101076.84;6180707;23;20021;-90
2022/10/14 10:59:14;;;;;;;14.38;8.90;;;;;;;14.85;100.00;101077.78;6181325;23;20019;-91
2022/10/14 11:01:42;;;;;;;13.63;8.80;;;;;;;14.93;100.00;101087.03;6178712;23;20336;-92
2022/10/14 11:04:41;;;;;;;14.13;9.82;;;;;;;14.99;100.00;101085.94;6182309;23;20031;-91
2022/10/14 11:13:37;;;;;;;13.98;8.55;;;;;;;15.00;100.00;101070.25;6182992;23;20016;-90
2022/10/14 11:16:13;;;;;;;14.27;9.18;;;;;;;14.98;100.00;101060.75;6182043;23;20013;-91
2022/10/14 11:18:48;;;;;;;12.52;8.65;;;;;;;15.03;100.00;101069.25;6183542;23;20009;-90
2022/10/14 11:21:24;;;;;;;13.02;8.43;;;;;;;14.88;100.00;101043.72;6183039;23;20316;-90
2022/10/14 11:24:01;;;;;;;13.25;7.70;;;;;;;14.99;100.00;101065.06;6182970;23;20205;-90
2022/10/14 11:26:47;;;;;;;13.05;7.93;;;;;;;14.89;100.00;101048.88;6182991;23;20072;-90
2022/10/14 11:29:22;;;;;;;12.88;8.07;;;;;;;15.06;100.00;101068.28;6181564;23;20004;-90
2022/10/14 11:32:08;;;;;;;11.27;6.93;;;;;;;15.07;100.00;101068.25;6182406;23;20012;-89
2022/10/14 11:34:36;;;;;;;11.85;7.43;;;;;;;15.06;100.00;101061.31;6181843;23;20359;-90
2022/10/14 11:37:08;;;;;;;11.43;7.60;;;;;;;15.07;100.00;101056.94;6180587;23;20518;-90